Time;durP1;ratioP1;P1;durP2;ratioP2;P2;SDS_P1;SDS_P2;PMS_P1;PMS_P2;Temp;Humidity;BMP_temperature;BMP_pressure;BME280_temperature;BME280_humidity;BME280_pressure;Samples;Min_cycle;Max_cycle;Signal;HPM_P1;HPM_P2
2021/10/25 00:00:36;;;;;;;16.55;10.18;;;;;;;3.26;67.84;94798.31;5053482;28;20048;-47
2021/10/25 00:03:01;;;;;;;14.25;8.57;;;;;;;3.25;66.87;94799.56;5053353;28;20414;-44
2021/10/25 00:05:27;;;;;;;12.80;8.68;;;;;;;3.25;66.91;94800.28;5053195;28;20029;-46
2021/10/25 00:07:53;;;;;;;14.57;9.13;;;;;;;3.26;66.71;94806.50;5052920;28;20025;-44
2021/10/25 00:10:19;;;;;;;21.77;11.43;;;;;;;3.01;67.22;94767.59;5052943;28;20025;-44
2021/10/25 00:12:45;;;;;;;22.45;11.80;;;;;;;3.12;67.56;94799.06;5052994;28;20028;-43
2021/10/25 00:15:10;;;;;;;20.67;11.48;;;;;;;3.10;67.53;94791.34;5052754;28;20115;-43
2021/10/25 00:17:36;;;;;;;15.60;7.82;;;;;;;3.06;67.15;94794.25;5053299;28;20020;-44
2021/10/25 00:20:04;;;;;;;11.82;7.60;;;;;;;3.01;68.55;94783.25;5052688;28;20478;-43
2021/10/25 00:22:30;;;;;;;14.93;8.40;;;;;;;3.02;68.40;94801.09;5053096;28;20039;-44
2021/10/25 00:24:55;;;;;;;10.48;8.27;;;;;;;3.04;67.37;94793.97;5052989;28;20433;-45
2021/10/25 00:27:20;;;;;;;18.63;10.73;;;;;;;3.09;67.28;94798.03;5052975;28;20414;-44
2021/10/25 00:29:46;;;;;;;18.05;11.35;;;;;;;3.13;67.37;94804.06;5053060;28;20403;-44
2021/10/25 00:32:11;;;;;;;22.92;13.88;;;;;;;3.13;67.18;94795.88;5052560;28;20035;-45
2021/10/25 00:34:37;;;;;;;26.33;14.68;;;;;;;3.09;67.97;94803.47;5052473;28;20021;-44
2021/10/25 00:37:03;;;;;;;11.68;8.00;;;;;;;3.13;67.88;94803.28;5052449;28;20020;-45
2021/10/25 00:39:31;;;;;;;11.35;7.47;;;;;;;3.12;67.02;94783.44;5052278;28;20089;-45
2021/10/25 00:41:57;;;;;;;15.27;9.70;;;;;;;3.11;67.34;94803.00;5052311;28;20036;-44
2021/10/25 00:44:24;;;;;;;14.98;8.35;;;;;;;3.16;66.82;94800.41;5052586;28;20040;-47
2021/10/25 00:46:50;;;;;;;26.88;13.80;;;;;;;3.20;66.62;94794.75;5038970;28;20091;-45
2021/10/25 00:49:15;;;;;;;25.27;12.77;;;;;;;3.41;66.28;94808.03;5052322;28;20413;-44
2021/10/25 00:51:40;;;;;;;32.33;17.40;;;;;;;3.34;66.11;94804.91;5052292;28;20029;-46
2021/10/25 00:54:06;;;;;;;27.17;14.77;;;;;;;3.31;66.73;94800.41;5052241;28;20045;-45
2021/10/25 00:56:32;;;;;;;30.27;14.27;;;;;;;3.21;66.48;94801.69;5052442;28;20497;-48
2021/10/25 00:58:58;;;;;;;29.50;14.15;;;;;;;3.20;67.39;94803.69;5052465;28;20044;-47
2021/10/25 01:01:23;;;;;;;27.10;14.05;;;;;;;3.12;66.93;94799.81;5052205;28;20410;-49
2021/10/25 01:03:49;;;;;;;16.92;9.18;;;;;;;3.08;66.49;94801.97;5052418;28;20021;-46
2021/10/25 01:06:14;;;;;;;16.98;8.43;;;;;;;3.03;66.32;94795.16;5052236;28;20478;-50
2021/10/25 01:08:40;;;;;;;16.10;9.27;;;;;;;3.03;67.37;94794.44;5052209;28;20493;-47
2021/10/25 01:11:06;;;;;;;9.98;6.55;;;;;;;2.95;67.42;94790.53;5034047;28;20016;-49
2021/10/25 01:13:31;;;;;;;13.13;7.72;;;;;;;2.95;67.55;94791.31;5033090;28;20051;-45
2021/10/25 01:15:57;;;;;;;12.65;7.63;;;;;;;2.85;67.63;94792.59;5051861;28;20032;-47
2021/10/25 01:18:22;;;;;;;10.93;6.97;;;;;;;2.89;66.81;94801.38;5052039;28;20020;-48
2021/10/25 01:20:48;;;;;;;12.60;6.88;;;;;;;3.00;66.71;94793.41;5051880;28;20546;-46
2021/10/25 01:23:13;;;;;;;5.78;4.40;;;;;;;2.81;67.69;94796.72;5051714;28;20025;-47
2021/10/25 01:25:39;;;;;;;11.38;5.85;;;;;;;2.89;67.14;94787.72;5051879;28;20028;-49
2021/10/25 01:28:04;;;;;;;7.43;5.85;;;;;;;2.88;67.11;94799.84;5051872;28;20052;-45
2021/10/25 01:30:30;;;;;;;7.55;5.82;;;;;;;2.82;66.83;94768.97;5037038;28;20101;-49
2021/10/25 01:32:55;;;;;;;11.07;6.63;;;;;;;2.74;67.46;94754.22;5040626;28;20036;-47
2021/10/25 01:35:22;;;;;;;9.93;6.60;;;;;;;2.90;67.25;94791.94;5036609;28;20079;-46
2021/10/25 01:37:47;;;;;;;19.50;7.13;;;;;;;2.88;67.70;94791.66;5031793;28;20080;-46
2021/10/25 01:40:13;;;;;;;8.65;6.90;;;;;;;2.95;67.35;94788.56;5031354;28;20022;-46
2021/10/25 01:42:40;;;;;;;9.20;6.38;;;;;;;2.86;67.17;94791.38;5031662;28;20036;-46
2021/10/25 01:45:07;;;;;;;16.50;8.32;;;;;;;2.85;67.95;94791.84;5031261;28;20025;-45
2021/10/25 01:47:32;;;;;;;9.10;6.03;;;;;;;2.63;67.90;94799.56;5044895;28;20028;-44
2021/10/25 01:49:58;;;;;;;9.52;4.88;;;;;;;2.49;68.29;94794.84;5051189;28;20025;-44
2021/10/25 01:52:24;;;;;;;8.25;4.85;;;;;;;2.48;68.41;94763.31;5051062;28;20032;-46
2021/10/25 01:54:50;;;;;;;8.88;4.72;;;;;;;2.77;67.79;94791.44;5050848;28;20080;-42
2021/10/25 01:57:15;;;;;;;9.45;5.63;;;;;;;2.82;67.55;94790.03;5049961;28;20017;-42
2021/10/25 01:59:41;;;;;;;9.63;6.95;;;;;;;2.88;67.62;94780.00;5050875;28;20025;-42
2021/10/25 02:02:06;;;;;;;10.45;6.55;;;;;;;2.97;67.76;94790.84;5050850;28;20028;-43
2021/10/25 02:04:32;;;;;;;11.93;6.43;;;;;;;2.94;67.59;94783.59;5051142;28;20031;-43
2021/10/25 02:06:57;;;;;;;10.88;6.57;;;;;;;2.83;68.45;94783.38;5050949;28;20560;-45
2021/10/25 02:09:23;;;;;;;10.98;6.20;;;;;;;2.71;67.63;94766.03;5051023;28;20441;-44
2021/10/25 02:11:49;;;;;;;10.10;6.32;;;;;;;3.00;67.63;94787.94;5051077;28;20063;-43
2021/10/25 02:14:15;;;;;;;13.10;8.20;;;;;;;3.02;67.15;94782.78;5050890;28;20017;-43
2021/10/25 02:16:42;;;;;;;11.85;8.18;;;;;;;3.10;67.32;94785.88;5051010;28;20456;-45
2021/10/25 02:19:07;;;;;;;12.27;6.65;;;;;;;3.19;67.24;94785.03;5050536;28;20021;-45
2021/10/25 02:21:33;;;;;;;10.63;6.15;;;;;;;3.27;65.95;94783.47;5033055;28;20086;-44
2021/10/25 02:23:58;;;;;;;11.48;6.30;;;;;;;3.21;65.55;94780.63;5050860;28;20535;-43
2021/10/25 02:26:24;;;;;;;7.55;5.10;;;;;;;3.22;65.62;94775.94;5050758;28;20017;-45
2021/10/25 02:28:50;;;;;;;6.82;4.47;;;;;;;3.13;66.31;94776.75;5050785;28;20025;-43
2021/10/25 02:31:15;;;;;;;12.35;7.97;;;;;;;3.01;66.61;94777.78;5050402;28;20055;-45
2021/10/25 02:33:41;;;;;;;11.50;6.22;;;;;;;2.72;67.61;94783.91;5050477;28;20048;-48
2021/10/25 02:36:07;;;;;;;6.68;5.25;;;;;;;2.67;68.00;94792.72;5050729;28;20032;-44
2021/10/25 02:38:34;;;;;;;8.05;5.05;;;;;;;2.75;67.56;94787.69;5050274;28;20387;-45
2021/10/25 02:41:00;;;;;;;9.88;6.30;;;;;;;2.71;67.06;94785.13;5050484;28;20022;-44
2021/10/25 02:43:26;;;;;;;13.23;8.32;;;;;;;2.65;67.84;94786.22;5050496;28;20486;-44
2021/10/25 02:45:51;;;;;;;12.82;7.32;;;;;;;2.65;68.15;94787.00;5050214;28;20029;-44
2021/10/25 02:48:16;;;;;;;14.60;7.07;;;;;;;2.56;68.17;94787.03;5032384;28;20021;-44
2021/10/25 02:50:42;;;;;;;12.10;7.57;;;;;;;2.57;68.13;94785.84;5050397;28;20021;-44
2021/10/25 02:53:09;;;;;;;11.88;6.65;;;;;;;2.48;68.05;94790.59;5050198;28;20036;-44
2021/10/25 02:55:35;;;;;;;13.52;5.60;;;;;;;2.45;67.07;94780.63;5049986;28;20029;-44
2021/10/25 02:58:01;;;;;;;7.35;5.18;;;;;;;2.45;67.93;94778.63;5050291;28;20421;-43
2021/10/25 03:00:27;;;;;;;8.70;6.00;;;;;;;2.47;67.91;94783.63;5050005;28;20029;-45
2021/10/25 03:02:53;;;;;;;7.75;5.72;;;;;;;2.38;68.15;94781.72;5049696;28;20029;-45
2021/10/25 03:05:18;;;;;;;12.52;5.63;;;;;;;2.37;67.48;94774.00;5050199;28;20036;-44
2021/10/25 03:07:44;;;;;;;12.70;6.60;;;;;;;2.16;68.66;94775.78;5050008;28;20013;-43
2021/10/25 03:10:09;;;;;;;8.18;5.80;;;;;;;2.21;68.04;94775.91;5050018;28;20021;-44
2021/10/25 03:12:35;;;;;;;10.77;6.43;;;;;;;2.14;68.35;94778.22;5050013;28;20029;-44
2021/10/25 03:15:00;;;;;;;10.65;6.50;;;;;;;2.15;67.69;94771.53;5050172;28;20029;-43
2021/10/25 03:17:26;;;;;;;7.43;5.43;;;;;;;2.25;67.73;94778.47;5050053;28;20494;-44
2021/10/25 03:19:53;;;;;;;11.05;7.20;;;;;;;2.27;67.42;94774.03;5049771;28;20482;-43
2021/10/25 03:22:18;;;;;;;12.27;6.93;;;;;;;2.26;67.75;94777.22;5049908;28;20029;-44
2021/10/25 03:24:45;;;;;;;8.13;6.25;;;;;;;2.10;67.06;94745.69;5050113;28;20025;-45
2021/10/25 03:27:10;;;;;;;12.75;7.05;;;;;;;2.21;66.37;94770.44;5050008;28;20489;-46
2021/10/25 03:29:36;;;;;;;9.95;6.60;;;;;;;2.22;67.31;94771.97;5050101;28;20056;-45
2021/10/25 03:32:02;;;;;;;12.60;6.85;;;;;;;2.16;67.30;94773.06;5049641;28;20032;-46
2021/10/25 03:34:28;;;;;;;11.07;7.05;;;;;;;2.06;67.44;94766.13;5049752;28;20079;-46
2021/10/25 03:36:54;;;;;;;13.52;6.07;;;;;;;1.94;67.43;94770.59;5049870;28;20078;-46
2021/10/25 03:39:23;;;;;;;15.73;6.80;;;;;;;1.83;67.47;94780.47;5049685;28;20029;-46
2021/10/25 03:41:50;;;;;;;10.18;6.43;;;;;;;1.79;67.68;94772.47;5049900;28;20075;-44
2021/10/25 03:44:21;;;;;;;8.35;5.57;;;;;;;1.75;67.76;94769.16;5049850;28;20033;-47
2021/10/25 03:46:52;;;;;;;9.77;6.30;;;;;;;1.58;68.16;94776.19;5049652;28;20033;-44
2021/10/25 03:49:33;;;;;;;9.55;6.55;;;;;;;1.61;68.36;94780.69;5049979;28;20052;-47
2021/10/25 03:52:04;;;;;;;14.23;8.73;;;;;;;1.61;68.20;94777.22;5049518;28;20064;-45
2021/10/25 03:54:44;;;;;;;10.25;8.05;;;;;;;1.59;68.37;94776.91;5049343;28;20080;-46
2021/10/25 04:00:28;;;;;;;12.20;6.68;;;;;;;1.51;68.54;94776.50;4976968;28;20113;-46
2021/10/25 04:28:07;;;;;;;9.70;6.53;;;;;;;1.54;66.51;94773.59;5108132;28;20036;-48
2021/10/25 04:30:34;;;;;;;10.10;6.03;;;;;;;1.47;66.60;94770.47;5108145;28;20070;-45
2021/10/25 04:33:00;;;;;;;17.48;10.15;;;;;;;1.39;66.82;94767.31;5107647;28;20031;-46
2021/10/25 04:35:26;;;;;;;27.58;14.55;;;;;;;1.31;66.70;94770.78;5107630;28;20027;-44
2021/10/25 04:37:52;;;;;;;28.73;15.73;;;;;;;1.24;66.99;94762.94;5107972;28;20059;-49
2021/10/25 04:40:17;;;;;;;35.47;14.55;;;;;;;1.17;66.77;94757.84;5109118;28;20419;-46
2021/10/25 04:42:43;;;;;;;24.20;11.02;;;;;;;1.04;67.32;94751.81;5126014;27;20396;-45
2021/10/25 04:45:08;;;;;;;22.58;11.48;;;;;;;0.88;67.59;94766.47;5125717;27;20509;-47
2021/10/25 04:47:35;;;;;;;48.42;25.77;;;;;;;0.75;67.55;94774.78;5125790;27;20110;-47
2021/10/25 04:50:00;;;;;;;71.75;37.25;;;;;;;0.59;68.40;94761.50;5125738;27;20025;-47
2021/10/25 04:52:29;;;;;;;110.70;47.22;;;;;;;0.65;68.69;94769.81;5125343;27;20114;-45
2021/10/25 04:54:55;;;;;;;66.95;34.75;;;;;;;0.50;68.37;94771.59;5125255;27;20073;-46
2021/10/25 04:57:20;;;;;;;50.92;27.88;;;;;;;0.71;67.64;94771.44;5122278;27;20025;-45
2021/10/25 04:59:45;;;;;;;49.13;23.23;;;;;;;0.63;68.73;94772.19;5113232;27;20031;-45
2021/10/25 05:02:11;;;;;;;37.08;20.05;;;;;;;0.68;68.09;94764.22;5115035;28;20035;-44
2021/10/25 05:04:37;;;;;;;26.17;14.48;;;;;;;0.78;68.60;94781.28;5113169;27;20411;-45
2021/10/25 05:07:02;;;;;;;20.13;12.20;;;;;;;0.77;68.39;94772.38;5115616;27;20027;-44
2021/10/25 05:09:28;;;;;;;20.13;8.95;;;;;;;0.68;69.21;94777.03;5115400;28;20403;-47
2021/10/25 05:11:53;;;;;;;20.40;11.52;;;;;;;0.48;69.34;94790.31;5114882;28;20031;-45
2021/10/25 05:14:19;;;;;;;19.88;9.95;;;;;;;0.53;69.07;94789.72;5113128;27;20023;-45
2021/10/25 05:16:44;;;;;;;26.83;15.30;;;;;;;0.64;68.62;94787.31;5109472;27;20479;-48
2021/10/25 05:19:10;;;;;;;22.60;13.95;;;;;;;0.75;68.36;94793.06;5100914;28;20493;-46
2021/10/25 05:21:36;;;;;;;43.60;24.50;;;;;;;0.73;68.12;94779.94;5099557;27;20114;-46
2021/10/25 05:24:02;;;;;;;59.80;29.73;;;;;;;0.82;68.35;94798.22;5101414;28;20356;-46
2021/10/25 05:26:29;;;;;;;224.52;78.90;;;;;;;0.45;69.04;94802.84;5100312;28;20031;-44
2021/10/25 05:28:54;;;;;;;58.58;26.85;;;;;;;0.42;68.61;94800.25;5099115;28;20034;-43
2021/10/25 05:31:20;;;;;;;60.63;31.55;;;;;;;0.19;69.51;94806.25;5101965;28;20027;-45
2021/10/25 05:33:45;;;;;;;41.53;24.30;;;;;;;0.52;70.13;94809.97;5110851;28;20031;-46
2021/10/25 05:36:11;;;;;;;38.03;21.10;;;;;;;0.50;69.28;94798.75;5111489;28;20106;-47
2021/10/25 05:38:37;;;;;;;27.67;17.45;;;;;;;0.73;69.38;94812.56;5110915;28;20032;-44
2021/10/25 05:41:03;;;;;;;22.05;13.38;;;;;;;0.65;69.89;94811.31;5111249;28;20513;-46
2021/10/25 05:43:29;;;;;;;14.77;10.60;;;;;;;0.75;69.62;94821.00;5110654;28;20072;-45
2021/10/25 05:45:54;;;;;;;15.07;10.35;;;;;;;0.84;69.71;94817.53;5110600;28;20032;-47
2021/10/25 05:48:20;;;;;;;24.35;15.90;;;;;;;0.99;69.25;94826.59;5110495;28;20034;-46
2021/10/25 05:50:46;;;;;;;22.98;15.02;;;;;;;1.08;68.74;94832.03;5110767;28;20378;-45
2021/10/25 05:53:12;;;;;;;20.88;13.32;;;;;;;1.13;69.37;94830.66;5110222;28;20030;-46
2021/10/25 05:55:39;;;;;;;20.05;13.68;;;;;;;1.04;69.76;94831.41;5110586;27;20047;-47
2021/10/25 05:58:06;;;;;;;27.50;18.88;;;;;;;1.11;69.17;94822.19;5108641;27;20436;-47
2021/10/25 06:00:37;;;;;;;60.35;38.03;;;;;;;1.18;69.23;94830.81;5109329;28;20038;-47
2021/10/25 06:03:02;;;;;;;43.88;30.92;;;;;;;1.22;69.00;94831.41;5110814;28;20415;-45
2021/10/25 06:05:30;;;;;;;33.35;21.08;;;;;;;1.24;70.37;94839.88;5109935;28;20034;-44
2021/10/25 06:07:57;;;;;;;27.58;18.40;;;;;;;1.21;70.20;94843.50;5110335;28;20023;-46
2021/10/25 06:10:29;;;;;;;26.23;17.88;;;;;;;1.28;71.13;94839.72;5104237;28;20028;-46
2021/10/25 06:12:59;;;;;;;19.73;11.70;;;;;;;1.35;70.51;94832.00;5090008;28;20036;-44
2021/10/25 06:15:29;;;;;;;15.95;7.47;;;;;;;1.41;70.67;94823.97;5108371;28;20440;-43
2021/10/25 06:17:56;;;;;;;40.05;17.33;;;;;;;1.67;70.64;94849.63;5109910;28;20028;-46
2021/10/25 06:20:27;;;;;;;27.10;13.13;;;;;;;1.77;71.01;94851.13;5108467;28;20031;-46
2021/10/25 06:22:52;;;;;;;38.92;21.55;;;;;;;1.82;71.32;94852.50;5103894;28;20055;-46
2021/10/25 06:25:20;;;;;;;78.35;36.83;;;;;;;1.82;71.74;94855.94;5096206;28;20126;-45
2021/10/25 06:27:47;;;;;;;119.70;55.05;;;;;;;1.93;71.60;94858.94;5109617;28;20023;-45
2021/10/25 06:30:13;;;;;;;103.45;56.33;;;;;;;1.88;71.13;94843.25;5109694;28;20048;-45
2021/10/25 06:32:39;;;;;;;82.38;50.92;;;;;;;2.16;71.01;94860.25;5109234;28;20028;-45
2021/10/25 06:35:07;;;;;;;33.10;21.52;;;;;;;2.20;71.16;94858.88;5109768;28;20412;-44
2021/10/25 06:37:38;;;;;;;29.98;21.40;;;;;;;2.51;69.78;94850.41;5103944;28;20032;-47
2021/10/25 06:40:07;;;;;;;37.25;23.27;;;;;;;2.66;69.96;94834.09;5092859;28;20088;-45
2021/10/25 06:42:32;;;;;;;40.13;25.23;;;;;;;3.01;69.23;94857.63;5091422;28;20578;-45
2021/10/25 06:45:00;;;;;;;44.70;27.48;;;;;;;3.47;67.73;94860.00;5097913;28;20043;-45
2021/10/25 06:59:36;;;;;;;38.28;19.27;;;;;;;7.48;58.26;94844.28;5126084;27;20614;-48
2021/10/25 07:02:01;;;;;;;17.00;13.05;;;;;;;7.59;57.25;94852.53;5125779;27;20114;-45
2021/10/25 07:04:27;;;;;;;15.35;11.35;;;;;;;8.32;56.33;94848.69;5126106;27;20023;-47
2021/10/25 07:06:54;;;;;;;15.68;11.27;;;;;;;8.89;54.56;94845.38;5105145;27;20062;-48
2021/10/25 07:09:20;;;;;;;13.68;11.25;;;;;;;9.64;53.09;94835.84;5103677;28;20110;-45
2021/10/25 07:11:46;;;;;;;15.48;12.10;;;;;;;10.10;51.57;94837.06;5105597;28;20019;-46
2021/10/25 07:14:14;;;;;;;17.15;12.63;;;;;;;10.18;50.51;94843.59;5105183;28;20546;-47
2021/10/25 07:16:52;;;;;;;19.85;15.25;;;;;;;10.29;52.06;94835.19;5105345;28;20032;-45
2021/10/25 07:19:50;;;;;;;29.75;19.45;;;;;;;11.19;47.63;94818.03;5105758;28;20038;-45
2021/10/25 07:22:43;;;;;;;7.63;5.20;;;;;;;11.09;47.14;94827.19;5109053;28;20032;-45
2021/10/25 08:06:17;;;;;;;7.30;3.73;;;;;;;10.17;47.28;94825.50;5091216;28;20480;-46
2021/10/25 08:11:18;;;;;;;7.63;4.60;;;;;;;10.08;48.08;94834.06;5101023;28;20044;-47
2021/10/25 08:13:45;;;;;;;7.35;3.88;;;;;;;9.70;49.26;94827.53;5107366;28;20027;-48
2021/10/25 08:21:14;;;;;;;5.95;3.63;;;;;;;12.80;42.52;94822.03;5104125;28;20055;-45
2021/10/25 08:23:40;;;;;;;4.68;2.95;;;;;;;13.03;40.16;94821.66;5089723;28;20050;-44
2021/10/25 08:26:08;;;;;;;8.48;3.33;;;;;;;12.38;40.72;94800.09;5090148;28;20501;-45
2021/10/25 08:28:34;;;;;;;6.78;3.03;;;;;;;12.77;40.60;94822.34;5089517;28;20031;-47
2021/10/25 08:31:00;;;;;;;5.72;3.00;;;;;;;13.36;39.84;94813.47;5093707;28;20077;-47
2021/10/25 08:33:41;;;;;;;6.93;2.97;;;;;;;13.44;38.57;94814.31;5109276;28;20102;-47
2021/10/25 08:36:12;;;;;;;4.75;3.10;;;;;;;12.45;40.30;94810.56;5112434;28;20028;-45
2021/10/25 08:41:23;;;;;;;6.57;3.75;;;;;;;10.70;43.38;94813.75;5111935;28;20034;-45
2021/10/25 08:43:50;;;;;;;6.18;3.45;;;;;;;10.52;43.52;94811.69;5112116;28;20019;-44
2021/10/25 08:46:17;;;;;;;10.65;4.22;;;;;;;10.23;44.68;94806.91;5112170;28;20107;-43
2021/10/25 08:48:46;;;;;;;3.75;2.90;;;;;;;10.18;44.91;94805.66;5111980;28;20026;-42
2021/10/25 08:51:13;;;;;;;6.85;3.38;;;;;;;10.18;45.12;94805.66;5112016;28;20031;-46
2021/10/25 08:53:39;;;;;;;4.75;3.10;;;;;;;10.06;45.02;94809.75;5111549;28;20028;-47
2021/10/25 08:56:05;;;;;;;5.47;3.20;;;;;;;9.99;45.15;94804.78;5108661;28;20050;-44
2021/10/25 08:58:35;;;;;;;5.97;3.47;;;;;;;9.81;46.02;94797.88;5091125;28;20086;-46
2021/10/25 09:01:00;;;;;;;7.90;3.50;;;;;;;9.78;45.56;94800.91;5091674;28;20035;-46
2021/10/25 09:03:26;;;;;;;4.75;2.97;;;;;;;9.66;45.27;94804.97;5091129;28;20024;-45
2021/10/25 09:05:56;;;;;;;3.53;2.53;;;;;;;10.18;43.30;94802.91;5091421;28;20024;-46
2021/10/25 09:08:22;;;;;;;4.95;3.30;;;;;;;10.38;43.72;94812.78;5091136;28;20031;-47
2021/10/25 09:10:48;;;;;;;5.30;3.10;;;;;;;10.37;43.12;94803.75;5090219;28;20095;-45
2021/10/25 09:13:20;;;;;;;6.95;3.10;;;;;;;10.62;43.67;94791.50;5091176;28;20107;-44
2021/10/25 09:15:52;;;;;;;3.92;2.65;;;;;;;11.42;42.35;94801.91;5091680;28;20020;-45
2021/10/25 09:18:28;;;;;;;4.97;2.63;;;;;;;12.13;39.23;94805.75;5092087;28;20423;-48
2021/10/25 09:21:01;;;;;;;8.35;4.35;;;;;;;13.89;36.96;94791.19;5098599;28;20553;-47
2021/10/25 09:23:38;;;;;;;26.27;10.70;;;;;;;14.77;33.28;94783.53;5112083;28;20118;-50
2021/10/25 09:26:12;;;;;;;62.50;31.80;;;;;;;14.99;33.19;94782.97;5112286;28;20023;-50
2021/10/25 09:28:41;;;;;;;5.07;3.47;;;;;;;15.25;31.64;94782.00;5112209;28;20034;-54
2021/10/25 09:31:12;;;;;;;16.55;10.93;;;;;;;14.83;33.40;94770.25;5111058;28;20046;-49
2021/10/25 09:33:42;;;;;;;4.82;2.70;;;;;;;15.84;31.51;94785.69;5112167;28;20023;-53
2021/10/25 09:36:13;;;;;;;3.78;2.40;;;;;;;16.23;30.79;94768.53;5109795;28;20031;-50
2021/10/25 09:39:38;;;;;;;5.40;2.60;;;;;;;15.07;31.88;94772.63;5112063;28;20024;-49
2021/10/25 09:49:57;;;;;;;;;;;;;;;17.29;29.33;94754.59;5097593;28;20093;-51
2021/10/25 09:52:32;;;;;;;6.10;2.40;;;;;;;15.82;30.27;94757.63;5091423;28;19908;-50
2021/10/25 09:54:59;;;;;;;4.72;2.70;;;;;;;15.38;31.05;94756.84;5091325;28;20031;-46
2021/10/25 09:57:34;;;;;;;3.33;2.38;;;;;;;15.01;32.02;94741.44;5095616;28;20030;-47
2021/10/25 10:00:00;;;;;;;4.35;2.63;;;;;;;14.52;33.51;94754.63;5111617;28;20062;-50
2021/10/25 10:02:25;;;;;;;9.13;4.25;;;;;;;15.84;32.21;94741.13;5111285;28;20047;-50
2021/10/25 10:04:57;;;;;;;4.88;2.75;;;;;;;17.43;29.26;94744.72;5094499;28;20034;-50
2021/10/25 10:07:27;;;;;;;5.82;3.28;;;;;;;17.66;29.56;94731.44;5106364;28;20051;-50
2021/10/25 10:09:53;;;;;;;3.50;2.50;;;;;;;16.75;29.50;94735.69;5109855;28;20020;-53
2021/10/25 10:12:20;;;;;;;4.50;2.40;;;;;;;16.97;29.76;94730.09;5111144;28;20031;-53
2021/10/25 10:14:51;;;;;;;4.78;2.38;;;;;;;16.50;29.83;94732.72;5111064;28;20020;-53
2021/10/25 10:17:34;;;;;;;5.18;2.50;;;;;;;16.42;29.51;94715.22;5111070;28;20030;-52
2021/10/25 10:20:11;;;;;;;6.35;3.38;;;;;;;16.28;30.36;94717.44;5100064;28;20024;-55
2021/10/25 10:22:41;;;;;;;12.90;5.05;;;;;;;17.51;30.51;94714.72;5089575;28;20028;-52
2021/10/25 10:25:08;;;;;;;5.80;3.35;;;;;;;17.36;28.16;94711.97;5098672;28;20111;-54
2021/10/25 10:27:34;;;;;;;2.95;2.10;;;;;;;16.29;30.18;94713.34;5111071;28;20106;-54
2021/10/25 10:30:00;;;;;;;5.22;2.17;;;;;;;16.52;30.38;94721.78;5110905;28;20583;-52
2021/10/25 10:32:33;;;;;;;4.47;2.47;;;;;;;16.55;29.81;94699.06;5096634;28;20032;-58
2021/10/25 10:35:08;;;;;;;4.15;2.50;;;;;;;16.36;31.43;94693.09;5088042;28;20126;-49
2021/10/25 10:37:38;;;;;;;4.63;2.20;;;;;;;17.19;29.33;94683.91;5088399;28;20024;-53
2021/10/25 10:40:11;;;;;;;4.72;2.47;;;;;;;17.19;28.86;94676.28;5088464;28;20470;-52
2021/10/25 10:42:38;;;;;;;6.30;2.70;;;;;;;17.10;29.18;94679.66;5086906;28;20078;-51
2021/10/25 10:45:09;;;;;;;3.72;2.22;;;;;;;17.19;28.40;94675.53;5092890;28;20034;-53
2021/10/25 10:47:53;;;;;;;9.65;2.53;;;;;;;17.68;28.61;94672.19;5108472;28;20114;-51
2021/10/25 10:50:23;;;;;;;4.15;2.28;;;;;;;18.78;26.85;94680.94;5102244;28;20033;-50
2021/10/25 10:53:13;;;;;;;4.03;2.30;;;;;;;17.57;28.11;94676.16;5092935;28;20028;-52
2021/10/25 10:55:42;;;;;;;3.55;2.30;;;;;;;18.27;27.17;94666.81;5090889;28;20023;-50
2021/10/25 11:00:40;;;;;;;5.20;2.50;;;;;;;19.70;25.45;94661.88;5087765;28;19915;-49
2021/10/25 11:03:13;;;;;;;4.32;2.15;;;;;;;19.24;25.82;94653.25;5088055;28;20523;-50
2021/10/25 11:06:00;;;;;;;11.30;6.05;;;;;;;18.38;26.59;94644.72;5088107;28;20504;-54
2021/10/25 11:08:38;;;;;;;5.57;2.50;;;;;;;17.76;28.80;94645.72;5087908;28;20028;-51
2021/10/25 11:11:05;;;;;;;2.88;2.35;;;;;;;18.24;27.49;94649.13;5087820;28;20046;-48
2021/10/25 11:13:32;;;;;;;4.05;2.50;;;;;;;18.02;27.62;94627.66;5088040;28;20024;-48
2021/10/25 11:16:08;;;;;;;4.15;2.60;;;;;;;17.90;26.80;94649.75;5095504;28;20051;-50
2021/10/25 11:18:39;;;;;;;5.13;2.30;;;;;;;17.18;27.94;94643.34;5107092;28;20026;-51
2021/10/25 11:22:01;;;;;;;4.18;2.88;;;;;;;15.74;30.39;94653.84;5108177;28;20031;-54
2021/10/25 11:24:27;;;;;;;2.72;2.20;;;;;;;15.37;31.08;94652.41;5085611;28;20054;-52
2021/10/25 11:26:55;;;;;;;3.88;2.38;;;;;;;15.96;30.98;94649.63;5107797;28;20338;-57
2021/10/25 11:29:27;;;;;;;5.38;2.72;;;;;;;15.24;31.00;94641.44;5107718;28;20032;-51
2021/10/25 11:31:59;;;;;;;2.90;2.28;;;;;;;16.21;30.55;94631.78;5108139;28;20043;-51
2021/10/25 11:34:30;;;;;;;7.25;4.80;;;;;;;16.22;31.77;94633.25;5109612;28;20055;-55
2021/10/25 11:37:03;;;;;;;5.65;2.17;;;;;;;15.84;30.61;94621.38;5114049;28;20053;-48
2021/10/25 11:42:27;;;;;;;4.80;2.78;;;;;;;15.38;31.16;94625.31;5099990;28;20127;-50
2021/10/25 11:44:54;;;;;;;8.88;2.55;;;;;;;15.83;30.38;94620.63;5093775;28;20020;-49
2021/10/25 11:47:20;;;;;;;4.93;2.55;;;;;;;15.03;31.66;94616.47;5093778;28;20024;-50
2021/10/25 11:49:46;;;;;;;6.63;2.40;;;;;;;14.95;32.29;94612.94;5093708;28;20084;-50
2021/10/25 11:52:12;;;;;;;5.38;2.47;;;;;;;15.65;31.60;94601.47;5093337;28;20024;-54
2021/10/25 11:54:52;;;;;;;3.88;2.60;;;;;;;16.76;30.37;94595.69;5093390;28;20035;-51
2021/10/25 11:57:19;;;;;;;6.57;2.17;;;;;;;16.84;28.72;94601.25;5092810;28;20020;-52
2021/10/25 12:00:14;;;;;;;3.67;2.50;;;;;;;15.91;30.38;94601.16;5093297;28;20032;-50
2021/10/25 12:02:40;;;;;;;4.53;2.50;;;;;;;15.19;31.62;94612.47;5092935;28;20036;-49
2021/10/25 12:05:06;;;;;;;4.43;2.22;;;;;;;15.01;32.64;94605.16;5093246;28;20023;-52
2021/10/25 12:07:32;;;;;;;2.33;2.03;;;;;;;15.21;31.21;94598.00;5093333;28;20028;-51
2021/10/25 12:10:04;;;;;;;3.97;2.42;;;;;;;15.20;32.07;94599.31;5093146;28;20035;-51
2021/10/25 12:12:30;;;;;;;6.38;3.22;;;;;;;15.23;33.40;94580.75;5093398;28;20054;-52
2021/10/25 12:15:01;;;;;;;3.95;2.70;;;;;;;15.83;30.96;94589.25;5092955;28;20519;-50
2021/10/25 12:17:34;;;;;;;4.38;2.17;;;;;;;16.18;30.56;94593.88;5093291;28;20028;-52
2021/10/25 12:20:11;;;;;;;5.25;2.40;;;;;;;16.32;30.65;94584.03;5092924;28;20024;-55
2021/10/25 12:22:38;;;;;;;3.25;1.83;;;;;;;15.79;30.02;94591.66;5093155;28;20059;-50
2021/10/25 12:25:05;;;;;;;3.30;2.40;;;;;;;15.78;29.85;94585.34;5109861;28;20019;-53
2021/10/25 12:27:41;;;;;;;4.80;1.92;;;;;;;15.56;30.42;94588.09;5113352;28;20070;-53
2021/10/25 12:30:10;;;;;;;5.18;2.03;;;;;;;15.48;31.58;94579.75;5108511;28;20086;-52
2021/10/25 12:32:39;;;;;;;6.63;3.42;;;;;;;16.00;30.98;94580.34;5093413;28;20397;-55
2021/10/25 12:35:06;;;;;;;2.50;1.85;;;;;;;15.73;30.25;94561.22;5088584;28;20474;-48
2021/10/25 12:37:33;;;;;;;3.63;1.92;;;;;;;15.57;31.19;94581.25;5104942;28;20084;-51
2021/10/25 12:40:15;;;;;;;9.40;2.15;;;;;;;15.24;31.83;94569.09;5110884;28;20034;-51
2021/10/25 12:42:44;;;;;;;3.85;2.33;;;;;;;14.86;31.35;94545.97;5110878;28;20055;-53
2021/10/25 12:45:26;;;;;;;6.97;2.40;;;;;;;15.05;33.42;94571.44;5110169;28;20544;-52
2021/10/25 12:47:52;;;;;;;5.28;2.53;;;;;;;14.71;32.01;94563.31;5109954;28;20043;-50
2021/10/25 12:50:18;;;;;;;3.28;2.30;;;;;;;14.73;33.58;94566.28;5110777;28;20404;-50
2021/10/25 12:52:53;;;;;;;2.45;2.00;;;;;;;15.23;31.67;94561.28;5106112;28;20435;-52
2021/10/25 12:55:18;;;;;;;3.58;1.77;;;;;;;15.52;31.59;94555.06;5092362;28;20103;-53
2021/10/25 12:57:44;;;;;;;6.95;2.22;;;;;;;15.46;31.24;94559.34;5108731;28;20581;-50
2021/10/25 13:00:11;;;;;;;3.25;1.77;;;;;;;15.43;31.54;94552.84;5112606;27;20481;-52
2021/10/25 13:02:47;;;;;;;4.40;2.17;;;;;;;15.48;32.48;94554.69;5112682;28;20058;-53
2021/10/25 13:05:18;;;;;;;3.70;2.20;;;;;;;15.19;31.85;94551.28;5112708;28;20038;-51
2021/10/25 13:07:48;;;;;;;7.80;4.72;;;;;;;15.36;32.53;94559.09;5111384;28;20047;-52
2021/10/25 13:10:17;;;;;;;4.35;2.60;;;;;;;15.21;31.43;94559.06;5112615;28;20023;-50
2021/10/25 13:12:42;;;;;;;4.10;2.13;;;;;;;14.37;32.71;94535.00;5112606;28;20028;-50
2021/10/25 13:15:09;;;;;;;2.88;2.03;;;;;;;14.01;34.07;94556.41;5112535;28;20089;-53
2021/10/25 13:17:34;;;;;;;5.28;2.10;;;;;;;13.62;34.60;94557.41;5112126;28;20027;-55
2021/10/25 13:20:00;;;;;;;4.55;2.40;;;;;;;13.87;34.30;94558.53;5112143;27;20028;-50
2021/10/25 13:22:29;;;;;;;3.42;2.40;;;;;;;13.60;34.98;94551.63;5112336;28;20023;-50